createdAt,value
2023-05-19T00:00:41.992Z,54.8
2023-05-19T00:02:25.699Z,54.8
2023-05-19T00:04:09.388Z,54.8
2023-05-19T00:05:53.088Z,54.9
2023-05-19T00:07:36.812Z,54.9
2023-05-19T00:09:20.494Z,54.9
2023-05-19T00:11:04.211Z,54.9
2023-05-19T00:12:47.902Z,55
2023-05-19T00:14:31.668Z,55
2023-05-19T00:16:15.334Z,54.9
2023-05-19T00:17:59.011Z,54.9
2023-05-19T00:19:42.717Z,54.9
2023-05-19T00:21:26.434Z,55
2023-05-19T00:23:10.130Z,54.9
2023-05-19T00:31:48.653Z,54.9
2023-05-19T00:33:32.337Z,54.9
2023-05-19T00:35:16.032Z,54.9
2023-05-19T00:36:59.751Z,54.9
2023-05-19T00:38:43.424Z,54.9
2023-05-19T00:40:27.130Z,54.9
2023-05-19T00:42:10.835Z,54.9
2023-05-19T00:43:54.555Z,54.9
2023-05-19T00:45:38.267Z,55
2023-05-19T00:47:21.963Z,54.9
2023-05-19T00:49:05.666Z,55
2023-05-19T00:50:49.360Z,54.9
2023-05-19T00:52:33.075Z,55
2023-05-19T00:54:16.759Z,54.9
2023-05-19T00:56:00.466Z,55
2023-05-19T00:57:44.183Z,54.9
2023-05-19T00:59:27.870Z,54.9
2023-05-19T01:01:11.561Z,54.9
2023-05-19T01:02:55.272Z,54.9
2023-05-19T01:04:38.988Z,55
2023-05-19T01:06:22.672Z,54.9
2023-05-19T01:08:06.377Z,54.9
2023-05-19T01:09:50.080Z,54.9
2023-05-19T01:11:33.783Z,55
2023-05-19T01:13:17.489Z,54.9
2023-05-19T01:15:01.192Z,54.9
2023-05-19T01:16:44.876Z,55
2023-05-19T01:18:28.587Z,54.9
2023-05-19T01:20:12.327Z,54.9
2023-05-19T01:21:55.979Z,54.9
2023-05-19T01:23:39.678Z,54.9
2023-05-19T01:25:23.388Z,54.9
2023-05-19T01:27:07.084Z,54.9
2023-05-19T01:28:50.779Z,54.8
2023-05-19T01:30:34.511Z,54.8
2023-05-19T01:32:18.225Z,54.9
2023-05-19T01:34:01.890Z,54.8
2023-05-19T01:35:45.601Z,54.9
2023-05-19T01:37:29.300Z,54.9
2023-05-19T01:39:13.002Z,54.9
2023-05-19T01:40:56.708Z,54.9
2023-05-19T01:42:40.418Z,54.9
2023-05-19T01:44:24.113Z,54.9
2023-05-19T01:46:07.809Z,54.9
2023-05-19T01:47:51.527Z,54.9
2023-05-19T01:49:35.210Z,54.9
2023-05-19T01:51:18.907Z,54.9
2023-05-19T01:53:02.613Z,54.9
2023-05-19T01:54:46.307Z,54.9
2023-05-19T01:56:30.022Z,55
2023-05-19T01:58:13.748Z,54.9
2023-05-19T01:59:57.434Z,54.9
2023-05-19T02:01:41.131Z,54.9
2023-05-19T02:03:24.832Z,54.9
2023-05-19T02:05:08.543Z,55
2023-05-19T02:06:52.232Z,55
2023-05-19T02:08:35.931Z,55
2023-05-19T02:10:19.622Z,55
2023-05-19T02:12:03.345Z,55
2023-05-19T02:13:47.035Z,54.9
2023-05-19T02:15:30.743Z,54.9
2023-05-19T02:17:14.439Z,55
2023-05-19T02:18:58.133Z,54.9
2023-05-19T02:20:41.844Z,55
2023-05-19T02:22:25.568Z,55
2023-05-19T02:24:09.263Z,55
2023-05-19T02:25:52.991Z,55
2023-05-19T02:27:36.657Z,55
2023-05-19T02:29:20.356Z,55
2023-05-19T02:31:04.051Z,55
2023-05-19T02:32:47.764Z,55
2023-05-19T02:34:31.468Z,55.1
2023-05-19T02:36:15.147Z,55
2023-05-19T02:37:58.866Z,55.1
2023-05-19T02:39:42.564Z,55.1
2023-05-19T02:41:26.272Z,55
2023-05-19T02:43:09.990Z,55
2023-05-19T02:44:53.684Z,55
2023-05-19T02:46:37.388Z,55
2023-05-19T02:48:21.086Z,55.1
2023-05-19T02:50:04.788Z,55.1
2023-05-19T02:51:48.466Z,55
2023-05-19T02:53:32.189Z,55.1
2023-05-19T02:55:15.901Z,55.1
2023-05-19T02:56:59.595Z,55.1
2023-05-19T02:58:43.308Z,55
2023-05-19T03:00:26.980Z,55.1
2023-05-19T03:02:10.677Z,55.1
2023-05-19T03:03:54.388Z,55.1
2023-05-19T03:05:38.081Z,55.1
2023-05-19T03:07:21.799Z,55.1
2023-05-19T03:09:05.543Z,55.2
2023-05-19T03:10:49.201Z,55.2
2023-05-19T03:12:32.910Z,55.2
2023-05-19T03:14:16.588Z,55.2
2023-05-19T03:16:00.309Z,55.2
2023-05-19T03:17:44.002Z,55.1
2023-05-19T03:19:27.730Z,55.1
2023-05-19T03:21:11.395Z,55.1
2023-05-19T03:22:55.112Z,55.2
2023-05-19T03:24:38.844Z,55.2
2023-05-19T03:26:22.582Z,55.3
2023-05-19T03:28:06.219Z,55.1
2023-05-19T03:29:49.925Z,55.2
2023-05-19T03:31:33.615Z,55.2
2023-05-19T03:33:17.346Z,55.2
2023-05-19T03:35:01.034Z,55.2
2023-05-19T03:36:44.724Z,55.2
2023-05-19T03:38:28.465Z,55.2
2023-05-19T03:40:12.142Z,55.2
2023-05-19T03:41:55.845Z,55.2
2023-05-19T03:43:39.543Z,55.2
2023-05-19T03:45:23.232Z,55.2
2023-05-19T03:47:06.954Z,55.2
2023-05-19T03:48:50.639Z,55.2
2023-05-19T03:50:34.344Z,55.3
2023-05-19T03:52:18.053Z,55.3
2023-05-19T03:54:01.741Z,55.3
2023-05-19T03:55:45.453Z,55.2
2023-05-19T03:57:29.155Z,55.3
2023-05-19T03:59:12.865Z,55.3
2023-05-19T04:00:56.565Z,55.3
2023-05-19T04:02:40.272Z,55.3
2023-05-19T04:04:23.965Z,55.3
2023-05-19T04:06:07.662Z,55.3
2023-05-19T04:07:51.365Z,55.3
2023-05-19T04:09:35.072Z,55.2
2023-05-19T04:11:18.787Z,55.2
2023-05-19T04:13:02.505Z,55.3
2023-05-19T04:14:46.178Z,55.3
2023-05-19T04:16:29.879Z,55.3
2023-05-19T04:18:13.600Z,55.3
2023-05-19T04:19:57.287Z,55.3
2023-05-19T04:21:40.977Z,55.3
2023-05-19T04:23:24.710Z,55.3
2023-05-19T04:25:08.410Z,55.3
2023-05-19T04:26:52.172Z,55.3
2023-05-19T04:28:35.803Z,55.3
2023-05-19T04:30:19.489Z,55.4
2023-05-19T04:32:03.214Z,55.3
2023-05-19T04:33:46.909Z,55.4
2023-05-19T04:35:30.592Z,55.4
2023-05-19T04:37:14.310Z,55.4
2023-05-19T04:38:58.019Z,55.4
2023-05-19T04:40:41.733Z,55.4
2023-05-19T04:42:25.413Z,55.5
2023-05-19T04:44:09.111Z,55.5
2023-05-19T04:45:52.829Z,55.4
2023-05-19T04:47:36.533Z,55.5
2023-05-19T04:49:20.249Z,55.5
2023-05-19T04:51:03.942Z,55.5
2023-05-19T04:52:47.634Z,55.5
2023-05-19T04:54:31.348Z,55.5
2023-05-19T04:56:15.074Z,55.5
2023-05-19T04:57:58.773Z,55.5
2023-05-19T04:59:42.448Z,55.5
2023-05-19T05:01:26.137Z,55.5
2023-05-19T05:03:09.866Z,55.5
2023-05-19T05:04:53.556Z,55.5
2023-05-19T05:06:37.247Z,55.5
2023-05-19T05:08:20.948Z,55.5
2023-05-19T05:10:04.642Z,55.6
2023-05-19T05:11:48.361Z,55.5
2023-05-19T05:15:15.807Z,55.5
2023-05-19T05:16:59.466Z,55.5
2023-05-19T05:18:43.176Z,55.5
2023-05-19T05:20:26.859Z,55.5
2023-05-19T05:22:10.557Z,55.5
2023-05-19T05:23:54.292Z,55.5
2023-05-19T05:25:37.979Z,55.4
2023-05-19T05:27:21.689Z,55.5
2023-05-19T05:29:05.367Z,55.5
2023-05-19T05:30:49.069Z,55.4
2023-05-19T05:32:32.785Z,55.4
2023-05-19T05:34:16.470Z,55.4
2023-05-19T05:36:00.179Z,55.4
2023-05-19T05:37:43.888Z,55.4
2023-05-19T05:39:27.586Z,55.4
2023-05-19T05:41:11.336Z,55.4
2023-05-19T05:42:54.988Z,55.4
2023-05-19T05:44:38.690Z,55.4
2023-05-19T05:46:22.410Z,55.3
2023-05-19T05:48:06.130Z,55.3
2023-05-19T05:49:49.809Z,55.3
2023-05-19T05:51:33.482Z,55.2
2023-05-19T05:53:17.203Z,55.2
2023-05-19T05:55:00.897Z,55.1
2023-05-19T05:56:44.677Z,55
2023-05-19T05:58:28.359Z,55
2023-05-19T06:00:12.069Z,55
2023-05-19T06:01:55.708Z,55
2023-05-19T06:03:39.424Z,54.9
2023-05-19T06:05:23.193Z,54.9
2023-05-19T06:07:06.807Z,54.9
2023-05-19T06:08:50.564Z,54.8
2023-05-19T06:10:34.241Z,54.8
2023-05-19T06:12:17.910Z,54.7
2023-05-19T06:14:01.661Z,54.6
2023-05-19T06:15:45.308Z,54.6
2023-05-19T06:17:29.116Z,54.6
2023-05-19T06:19:12.710Z,54.5
2023-05-19T06:20:56.422Z,54.4
2023-05-19T06:22:40.153Z,54.4
2023-05-19T06:24:23.822Z,54.4
2023-05-19T06:26:07.536Z,54.4
2023-05-19T06:27:51.262Z,54.3
2023-05-19T06:29:34.978Z,54.3
2023-05-19T06:31:18.636Z,54.3
2023-05-19T06:33:02.348Z,54.2
2023-05-19T06:34:46.125Z,53.9
2023-05-19T06:36:29.752Z,53.3
2023-05-19T06:38:13.459Z,53.1
2023-05-19T06:39:57.162Z,52.9
2023-05-19T06:41:40.960Z,52.6
2023-05-19T06:43:24.619Z,52.3
2023-05-19T06:45:08.257Z,52.1
2023-05-19T06:46:51.982Z,52
2023-05-19T06:48:35.667Z,51.9
2023-05-19T06:50:19.372Z,51.8
2023-05-19T06:52:03.061Z,51.5
2023-05-19T06:53:46.812Z,51.3
2023-05-19T06:55:30.463Z,51.2
2023-05-19T06:57:14.174Z,51
2023-05-19T06:58:57.877Z,50.7
2023-05-19T07:00:41.587Z,50.5
2023-05-19T07:02:25.294Z,50.3
2023-05-19T07:04:08.998Z,50.1
2023-05-19T07:05:52.703Z,50.1
2023-05-19T07:07:36.386Z,50
2023-05-19T07:09:20.099Z,49.9
2023-05-19T07:11:03.811Z,49.8
2023-05-19T07:12:47.499Z,49.7
2023-05-19T07:14:31.210Z,49.7
2023-05-19T07:16:14.909Z,49.8
2023-05-19T07:17:58.627Z,49.7
2023-05-19T07:19:42.316Z,49.7
2023-05-19T07:21:26.020Z,49.9
2023-05-19T07:23:09.877Z,49.9
2023-05-19T07:24:53.443Z,50.1
2023-05-19T07:26:37.276Z,50.3
2023-05-19T07:28:21.004Z,50.6
2023-05-19T07:30:04.546Z,50.8
2023-05-19T07:31:48.469Z,50.9
2023-05-19T07:33:32.057Z,51
2023-05-19T07:35:15.657Z,51
2023-05-19T07:36:59.376Z,51.2
2023-05-19T07:38:43.153Z,51.3
2023-05-19T07:40:26.809Z,51.4
2023-05-19T07:42:10.472Z,51.6
2023-05-19T07:43:54.283Z,51.6
2023-05-19T07:45:37.871Z,51.6
2023-05-19T07:47:21.666Z,51.1
2023-05-19T07:49:05.379Z,51.5
2023-05-19T07:50:49.210Z,51.6
2023-05-19T07:52:32.784Z,51.5
2023-05-19T07:54:16.393Z,51.4
2023-05-19T07:56:00.152Z,51.4
2023-05-19T07:57:43.811Z,51.3
2023-05-19T07:59:27.556Z,51.1
2023-05-19T08:01:11.222Z,51
2023-05-19T08:04:38.624Z,50.9
2023-05-19T08:06:22.320Z,50.9
2023-05-19T08:08:06.043Z,50.9
2023-05-19T08:09:49.772Z,50.9
2023-05-19T08:11:33.490Z,50.9
2023-05-19T08:13:17.153Z,50.9
2023-05-19T08:15:00.861Z,51
2023-05-19T08:16:44.561Z,51
2023-05-19T08:18:28.283Z,51
2023-05-19T08:20:12.092Z,51
2023-05-19T08:21:55.668Z,51
2023-05-19T08:23:39.365Z,51
2023-05-19T08:25:23.078Z,51
2023-05-19T08:27:06.782Z,51
2023-05-19T08:28:50.498Z,50.9
2023-05-19T08:30:34.188Z,50.9
2023-05-19T08:32:17.996Z,50.8
2023-05-19T08:34:01.662Z,50.8
2023-05-19T08:35:45.331Z,50.7
2023-05-19T08:37:29.009Z,50.7
2023-05-19T08:39:12.760Z,50.7
2023-05-19T08:40:56.441Z,50.7
2023-05-19T08:42:40.155Z,50.7
2023-05-19T08:44:23.836Z,50.8
2023-05-19T08:46:07.527Z,50.7
2023-05-19T08:47:51.223Z,50.6
2023-05-19T08:49:34.955Z,50.6
2023-05-19T08:51:18.783Z,50.4
2023-05-19T08:53:02.488Z,50.3
2023-05-19T08:54:46.146Z,50.2
2023-05-19T08:56:29.889Z,50.2
2023-05-19T08:58:13.569Z,50
2023-05-19T08:59:57.371Z,49.9
2023-05-19T09:01:40.920Z,49.9
2023-05-19T09:03:24.532Z,49.9
2023-05-19T09:05:08.280Z,50
2023-05-19T09:06:52.133Z,50
2023-05-19T09:08:35.799Z,50
2023-05-19T09:10:19.524Z,50.1
2023-05-19T09:12:03.223Z,50
2023-05-19T09:13:46.903Z,49.9
2023-05-19T09:15:30.456Z,49.8
2023-05-19T09:17:14.253Z,49.7
2023-05-19T09:18:58.105Z,49.6
2023-05-19T09:20:41.814Z,49.5
2023-05-19T09:22:25.511Z,49.3
2023-05-19T09:24:09.207Z,49.1
2023-05-19T09:25:52.840Z,49
2023-05-19T09:27:36.599Z,48.9
2023-05-19T09:29:20.280Z,48.9
2023-05-19T09:31:03.967Z,48.9
2023-05-19T09:32:47.662Z,48.9
2023-05-19T09:34:31.238Z,48.9
2023-05-19T09:36:15.100Z,48.9
2023-05-19T09:37:58.729Z,48.9
2023-05-19T09:39:42.468Z,48.9
2023-05-19T09:41:26.298Z,49
2023-05-19T09:43:09.702Z,48.8
2023-05-19T09:44:53.570Z,48.7
2023-05-19T09:46:37.310Z,48.7
2023-05-19T09:48:21.016Z,48.5
2023-05-19T09:50:04.630Z,48.4
2023-05-19T09:51:48.267Z,48.4
2023-05-19T09:53:32.077Z,48.4
2023-05-19T09:55:15.720Z,48.6
2023-05-19T09:56:59.312Z,48.4
2023-05-19T09:58:43.150Z,48.3
2023-05-19T10:00:26.713Z,48.2
2023-05-19T10:02:10.581Z,48.2
2023-05-19T10:03:54.130Z,48.2
2023-05-19T10:05:37.858Z,48.3
2023-05-19T10:07:21.599Z,48.4
2023-05-19T10:09:05.403Z,48.4
2023-05-19T10:10:49.051Z,48.4
2023-05-19T10:12:32.793Z,48.3
2023-05-19T10:14:16.463Z,48.2
2023-05-19T10:16:00.250Z,48.4
2023-05-19T10:17:43.856Z,48.6
2023-05-19T10:19:27.626Z,48.7
2023-05-19T10:21:11.111Z,48.8
2023-05-19T10:22:55.067Z,48.9
2023-05-19T10:24:38.715Z,49.2
2023-05-19T10:26:22.215Z,49.4
2023-05-19T10:28:06.042Z,49.7
2023-05-19T10:29:49.682Z,49.8
2023-05-19T10:31:33.325Z,49.9
2023-05-19T10:33:17.033Z,50.1
2023-05-19T10:35:00.891Z,50.2
2023-05-19T10:36:44.631Z,50.2
2023-05-19T10:38:28.334Z,50.3
2023-05-19T10:40:11.856Z,50.4
2023-05-19T10:41:55.742Z,50.4
2023-05-19T10:43:39.270Z,50.4
2023-05-19T10:45:23.097Z,50.3
2023-05-19T10:47:06.788Z,50.3
2023-05-19T10:48:50.583Z,50.4
2023-05-19T10:50:34.229Z,50.5
2023-05-19T10:52:17.791Z,50.5
2023-05-19T10:54:01.597Z,50.5
2023-05-19T10:55:45.354Z,50.5
2023-05-19T10:57:29.050Z,50.4
2023-05-19T10:59:12.726Z,50.3
2023-05-19T11:00:56.470Z,50.3
2023-05-19T11:02:40.159Z,50.1
2023-05-19T11:04:23.704Z,50.1
2023-05-19T11:06:07.614Z,50.1
2023-05-19T11:07:51.183Z,50.1
2023-05-19T11:09:34.873Z,50.1
2023-05-19T11:11:18.517Z,50.1
2023-05-19T11:13:02.386Z,50
2023-05-19T11:14:46.099Z,50.1
2023-05-19T11:16:29.816Z,50.1
2023-05-19T11:18:13.437Z,50.1
2023-05-19T11:19:57.090Z,50
2023-05-19T11:21:40.827Z,50
2023-05-19T11:23:24.557Z,50
2023-05-19T11:25:08.330Z,49.9
2023-05-19T11:26:51.857Z,49.9
2023-05-19T11:28:35.677Z,49.8
2023-05-19T11:30:19.285Z,49.8
2023-05-19T11:32:03.098Z,49.8
2023-05-19T11:33:46.633Z,50
2023-05-19T11:35:30.348Z,50
2023-05-19T11:37:14.197Z,50.1
2023-05-19T11:38:57.954Z,50.1
2023-05-19T11:40:41.522Z,50.1
2023-05-19T11:42:25.183Z,50
2023-05-19T11:44:09.023Z,50.1
2023-05-19T11:45:52.612Z,50.2
2023-05-19T11:47:36.386Z,50.3
2023-05-19T11:49:19.966Z,50.4
2023-05-19T11:51:03.870Z,50.4
2023-05-19T11:52:47.481Z,50.3
2023-05-19T11:54:31.246Z,50.4
2023-05-19T11:56:15.077Z,50.4
2023-05-19T11:57:58.737Z,50.3
2023-05-19T11:59:42.375Z,50.3
2023-05-19T12:01:26.071Z,50.3
2023-05-19T12:03:09.622Z,50.3
2023-05-19T12:04:53.491Z,50.3
2023-05-19T12:06:37.202Z,50.3
2023-05-19T12:08:20.936Z,50.2
2023-05-19T12:10:04.546Z,50.2
2023-05-19T12:11:48.257Z,50.1
2023-05-19T12:13:32.000Z,50
2023-05-19T12:15:15.681Z,49.9
2023-05-19T12:16:59.435Z,49.8
2023-05-19T12:18:43.132Z,49.7
2023-05-19T12:20:26.819Z,49.5
2023-05-19T12:22:10.568Z,49.4
2023-05-19T12:23:54.061Z,49.3
2023-05-19T12:25:37.931Z,49.1
2023-05-19T12:27:21.638Z,49
2023-05-19T12:29:05.207Z,49
2023-05-19T12:30:49.060Z,49
2023-05-19T12:32:32.565Z,49
2023-05-19T12:34:16.488Z,49.1
2023-05-19T12:36:00.253Z,49.1
2023-05-19T12:37:43.696Z,49.2
2023-05-19T12:39:27.551Z,49.4
2023-05-19T12:41:11.079Z,49.5
2023-05-19T12:42:54.982Z,49.6
2023-05-19T12:44:38.742Z,49.7
2023-05-19T12:46:22.276Z,49.8
2023-05-19T12:48:05.930Z,49.8
2023-05-19T12:49:49.611Z,49.7
2023-05-19T12:51:33.440Z,49.7
2023-05-19T12:53:17.216Z,49.6
2023-05-19T12:55:00.999Z,49.5
2023-05-19T12:56:44.593Z,49.6
2023-05-19T12:58:28.366Z,49.5
2023-05-19T13:00:11.904Z,49.4
2023-05-19T13:01:55.577Z,49.4
2023-05-19T13:05:22.973Z,49.2
2023-05-19T13:07:06.643Z,49.2
2023-05-19T13:08:50.338Z,49.2
2023-05-19T13:10:34.064Z,49.1
2023-05-19T13:12:17.752Z,49.1
2023-05-19T13:14:01.441Z,49.1
2023-05-19T13:15:45.222Z,49.1
2023-05-19T13:17:28.899Z,49.2
2023-05-19T13:19:12.562Z,49.1
2023-05-19T13:20:56.307Z,49.2
2023-05-19T13:22:40.084Z,49.2
2023-05-19T13:24:23.640Z,49.2
2023-05-19T13:26:07.429Z,49.3
2023-05-19T13:27:51.235Z,49.3
2023-05-19T13:29:34.889Z,49.3
2023-05-19T13:31:18.461Z,49.3
2023-05-19T13:33:02.335Z,49.2
2023-05-19T13:34:46.002Z,49.1
2023-05-19T13:36:29.562Z,49.1
2023-05-19T13:38:13.260Z,49.1
2023-05-19T13:39:58.173Z,49.2
2023-05-19T13:41:40.886Z,49.2
2023-05-19T13:43:24.538Z,49.1
2023-05-19T13:45:08.182Z,49.1
2023-05-19T13:46:51.908Z,49.1
2023-05-19T13:48:35.476Z,49.1
2023-05-19T13:50:19.289Z,49.1
2023-05-19T13:52:02.882Z,49.2
2023-05-19T13:53:46.582Z,49.2
2023-05-19T13:55:30.301Z,49.4
2023-05-19T13:57:14.008Z,49.4
2023-05-19T13:58:57.901Z,49.6
2023-05-19T14:00:41.499Z,49.6
2023-05-19T14:02:25.231Z,49.7
2023-05-19T14:04:08.830Z,49.7
2023-05-19T14:05:52.586Z,49.8
2023-05-19T14:07:36.403Z,49.8
2023-05-19T14:09:20.205Z,49.8
2023-05-19T14:11:03.691Z,49.8
2023-05-19T14:12:47.541Z,50
2023-05-19T14:14:31.110Z,50.2
2023-05-19T14:16:14.904Z,50.3
2023-05-19T14:17:58.605Z,50.4
2023-05-19T14:19:42.326Z,50.5
2023-05-19T14:21:25.913Z,50.6
2023-05-19T14:23:09.686Z,50.7
2023-05-19T14:24:53.321Z,50.8
2023-05-19T14:26:37.083Z,50.8
2023-05-19T14:28:20.859Z,50.8
2023-05-19T14:30:04.565Z,50.9
2023-05-19T14:31:48.124Z,50.9
2023-05-19T14:33:31.960Z,51
2023-05-19T14:35:15.674Z,51
2023-05-19T14:36:59.338Z,50.9
2023-05-19T14:38:43.070Z,50.9
2023-05-19T14:40:26.704Z,50.9
2023-05-19T14:42:10.315Z,50.9
2023-05-19T14:43:54.180Z,51
2023-05-19T14:45:37.883Z,50.9
2023-05-19T14:47:21.575Z,50.9
2023-05-19T14:49:05.280Z,50.9
2023-05-19T14:50:48.867Z,51
2023-05-19T14:52:32.635Z,51
2023-05-19T14:54:16.420Z,51
2023-05-19T14:56:00.085Z,51
2023-05-19T14:57:43.801Z,51
2023-05-19T14:59:27.455Z,51
2023-05-19T15:01:11.099Z,51
2023-05-19T15:02:54.868Z,51.1
2023-05-19T15:04:38.521Z,51
2023-05-19T15:06:22.338Z,51
2023-05-19T15:08:05.879Z,51
2023-05-19T15:09:49.713Z,51
2023-05-19T15:11:33.259Z,51
2023-05-19T15:13:17.130Z,51
2023-05-19T15:16:44.498Z,51
2023-05-19T15:18:28.268Z,51
2023-05-19T15:20:11.757Z,50.9
2023-05-19T15:23:39.252Z,50.9
2023-05-19T15:25:22.880Z,50.9
2023-05-19T15:27:06.704Z,50.9
2023-05-19T15:28:50.487Z,50.9
2023-05-19T15:30:34.052Z,50.8
2023-05-19T15:32:17.774Z,50.8
2023-05-19T15:34:01.536Z,50.8
2023-05-19T15:35:45.316Z,50.7
2023-05-19T15:37:28.927Z,50.7
2023-05-19T15:39:12.540Z,50.7
2023-05-19T15:40:56.236Z,50.7
2023-05-19T15:42:40.085Z,50.7
2023-05-19T15:44:26.794Z,50.9
2023-05-19T15:46:07.510Z,50.9
2023-05-19T15:47:51.053Z,50.9
2023-05-19T15:49:34.913Z,50.9
2023-05-19T15:51:18.455Z,50.9
2023-05-19T15:53:02.148Z,50.9
2023-05-19T15:54:45.893Z,50.9
2023-05-19T15:56:29.564Z,51
2023-05-19T15:58:13.314Z,51
2023-05-19T15:59:57.034Z,50.9
2023-05-19T16:01:40.821Z,51
2023-05-19T16:03:24.538Z,51.1
2023-05-19T16:05:08.280Z,51.1
2023-05-19T16:06:51.950Z,51.3
2023-05-19T16:08:35.501Z,51.4
2023-05-19T16:10:19.307Z,51.4
2023-05-19T16:12:03.078Z,51.5
2023-05-19T16:13:46.801Z,51.5
2023-05-19T16:15:30.500Z,51.7
2023-05-19T16:17:14.269Z,51.7
2023-05-19T16:18:57.917Z,51.8
2023-05-19T16:20:41.487Z,51.8
2023-05-19T16:22:25.292Z,51.8
2023-05-19T16:24:08.908Z,51.9
2023-05-19T16:25:52.613Z,51.9
2023-05-19T16:27:36.431Z,52
2023-05-19T16:29:19.995Z,52
2023-05-19T16:31:03.652Z,52.1
2023-05-19T16:32:47.632Z,52.2
2023-05-19T16:34:31.244Z,52.2
2023-05-19T16:36:14.914Z,52.3
2023-05-19T16:37:58.614Z,52.3
2023-05-19T16:39:42.267Z,52.2
2023-05-19T16:41:25.983Z,52.2
2023-05-19T16:43:09.589Z,52.3
2023-05-19T16:44:53.450Z,52.1
2023-05-19T16:46:37.159Z,52.4
2023-05-19T16:48:20.951Z,52.3
2023-05-19T16:50:04.622Z,52.3
2023-05-19T16:51:48.225Z,52.3
2023-05-19T16:53:31.913Z,52.4
2023-05-19T16:55:15.572Z,52.4
2023-05-19T16:56:59.334Z,52.4
2023-05-19T16:58:43.153Z,52.5
2023-05-19T17:00:26.572Z,52.5
2023-05-19T17:02:10.288Z,52.5
2023-05-19T17:03:53.978Z,52.4
2023-05-19T17:05:37.671Z,52.5
2023-05-19T17:07:21.378Z,52.5
2023-05-19T17:09:05.089Z,52.5
2023-05-19T17:10:48.771Z,52.6
2023-05-19T17:12:32.481Z,52.8
2023-05-19T17:14:16.184Z,52.8
2023-05-19T17:15:59.886Z,53
2023-05-19T17:17:43.566Z,53.1
2023-05-19T17:19:27.289Z,53.2
2023-05-19T17:21:10.994Z,53.2
2023-05-19T17:22:54.795Z,52.9
2023-05-19T17:24:38.418Z,52.9
2023-05-19T17:26:22.219Z,52.8
2023-05-19T17:28:06.026Z,53
2023-05-19T17:29:49.530Z,53.1
2023-05-19T17:31:33.221Z,53.4
2023-05-19T17:33:16.957Z,53.5
2023-05-19T17:35:00.771Z,53.4
2023-05-19T17:36:44.456Z,53.3
2023-05-19T17:38:28.020Z,53.5
2023-05-19T17:40:11.801Z,53.4
2023-05-19T17:41:55.585Z,53.2
2023-05-19T17:43:39.154Z,53.2
2023-05-19T17:45:22.951Z,53.1
2023-05-19T17:47:06.582Z,53.2
2023-05-19T17:48:50.349Z,53.4
2023-05-19T17:50:33.928Z,53.4
2023-05-19T17:52:17.809Z,53.4
2023-05-19T17:54:01.509Z,53.4
2023-05-19T17:55:45.196Z,53.5
2023-05-19T17:57:28.886Z,53.5
2023-05-19T17:59:12.656Z,53.6
2023-05-19T18:00:56.296Z,53.6
2023-05-19T18:02:39.841Z,53.7
2023-05-19T18:04:23.681Z,53.7
2023-05-19T18:06:07.474Z,53.7
2023-05-19T18:07:51.050Z,53.8
2023-05-19T18:09:34.769Z,54.3
2023-05-19T18:11:18.596Z,54.8
2023-05-19T18:13:02.149Z,55
2023-05-19T18:14:45.825Z,55
2023-05-19T18:16:29.448Z,55.1
2023-05-19T18:18:13.334Z,55.3
2023-05-19T18:19:57.065Z,55.1
2023-05-19T18:21:40.730Z,55.3
2023-05-19T18:23:24.460Z,55.3
2023-05-19T18:25:09.530Z,55.2
2023-05-19T18:32:02.947Z,55.2
2023-05-19T18:33:46.689Z,55.3
2023-05-19T18:35:30.332Z,55.3
2023-05-19T18:37:14.062Z,55.3
2023-05-19T18:38:57.711Z,55.4
2023-05-19T18:40:41.563Z,55.4
2023-05-19T18:42:25.230Z,55.4
2023-05-19T18:44:08.850Z,55.4
2023-05-19T18:45:52.565Z,55.4
2023-05-19T18:47:36.232Z,55.3
2023-05-19T18:49:19.877Z,55.4
2023-05-19T18:51:03.534Z,55.5
2023-05-19T18:52:47.273Z,55.4
2023-05-19T18:54:31.072Z,55.4
2023-05-19T18:56:14.774Z,55.3
2023-05-19T18:57:58.322Z,55.2
2023-05-19T18:59:42.187Z,55.2
2023-05-19T19:01:25.967Z,55.2
2023-05-19T19:03:09.440Z,55.2
2023-05-19T19:04:53.285Z,55.2
2023-05-19T19:06:36.984Z,55.1
2023-05-19T19:08:20.583Z,55.1
2023-05-19T19:10:04.406Z,55.2
2023-05-19T19:11:48.064Z,55.1
2023-05-19T19:13:31.732Z,55.1
2023-05-19T19:15:15.474Z,55.1
2023-05-19T19:16:59.042Z,55.1
2023-05-19T19:18:42.917Z,55.2
2023-05-19T19:20:26.456Z,55.2
2023-05-19T19:22:10.261Z,55.1
2023-05-19T19:23:53.824Z,55.2
2023-05-19T19:25:37.672Z,55.1
2023-05-19T19:27:21.403Z,55.1
2023-05-19T19:29:05.040Z,55.2
2023-05-19T19:30:48.681Z,55.3
2023-05-19T19:32:32.485Z,55.3
2023-05-19T19:34:16.221Z,55.3
2023-05-19T19:35:59.745Z,55.3
2023-05-19T19:37:43.626Z,55.3
2023-05-19T19:39:27.325Z,55.3
2023-05-19T19:41:10.869Z,55.3
2023-05-19T19:42:54.609Z,55.3
2023-05-19T19:44:38.431Z,55.3
2023-05-19T19:46:22.022Z,55.3
2023-05-19T19:48:05.861Z,55.3
2023-05-19T19:49:49.355Z,55.2
2023-05-19T19:51:33.230Z,55.3
2023-05-19T19:53:16.942Z,55.3
2023-05-19T19:55:00.642Z,55.3
2023-05-19T19:56:44.282Z,55.3
2023-05-19T19:58:28.169Z,55.3
2023-05-19T20:00:11.575Z,55.3
2023-05-19T20:01:55.446Z,55.3
2023-05-19T20:03:38.986Z,55.3
2023-05-19T20:05:22.858Z,55.3
2023-05-19T20:07:06.547Z,55.3
2023-05-19T20:08:50.276Z,55.4
2023-05-19T20:10:33.832Z,55.4
2023-05-19T20:12:17.693Z,55.3
2023-05-19T20:14:01.361Z,55.5
2023-05-19T20:15:45.051Z,55.5
2023-05-19T20:17:28.754Z,55.6
2023-05-19T20:19:12.444Z,55.6
2023-05-19T20:20:56.153Z,55.7
2023-05-19T20:22:39.897Z,55.7
2023-05-19T20:24:23.548Z,55.7
2023-05-19T20:26:07.101Z,55.7
2023-05-19T20:27:50.834Z,55.7
2023-05-19T20:29:34.505Z,55.8
2023-05-19T20:31:18.305Z,55.8
2023-05-19T20:33:01.975Z,55.8
2023-05-19T20:34:45.648Z,55.8
2023-05-19T20:36:29.465Z,55.8
2023-05-19T20:38:13.124Z,55.9
2023-05-19T20:39:56.852Z,55.9
2023-05-19T20:41:40.423Z,55.9
2023-05-19T20:43:24.283Z,55.9
2023-05-19T20:45:07.954Z,55.9
2023-05-19T20:46:51.692Z,55.9
2023-05-19T20:48:35.319Z,55.9
2023-05-19T20:50:18.917Z,55.9
2023-05-19T20:52:02.622Z,55.9
2023-05-19T20:53:46.337Z,55.9
2023-05-19T20:55:30.033Z,55.9
2023-05-19T20:57:13.755Z,55.8
2023-05-19T20:58:57.456Z,55.8
2023-05-19T21:00:41.159Z,55.8
2023-05-19T21:02:24.838Z,55.9
2023-05-19T21:04:08.541Z,55.9
2023-05-19T21:05:52.243Z,55.9
2023-05-19T21:07:35.957Z,55.9
2023-05-19T21:09:19.649Z,55.9
2023-05-19T21:11:03.365Z,55.9
2023-05-19T21:12:47.183Z,55.8
2023-05-19T21:14:30.842Z,55.8
2023-05-19T21:16:14.471Z,55.7
2023-05-19T21:17:58.274Z,55.8
2023-05-19T21:19:42.037Z,55.9
2023-05-19T21:21:25.716Z,55.9
2023-05-19T21:23:09.417Z,55.9
2023-05-19T21:24:53.182Z,55.9
2023-05-19T21:26:36.695Z,55.9
2023-05-19T21:28:20.569Z,55.9
2023-05-19T21:30:04.343Z,55.8
2023-05-19T21:31:47.915Z,55.9
2023-05-19T21:33:31.561Z,56
2023-05-19T21:35:15.320Z,56.2
2023-05-19T21:36:58.963Z,56.2
2023-05-19T21:38:42.704Z,56.3
2023-05-19T21:40:26.358Z,56.3
2023-05-19T21:42:10.134Z,56.3
2023-05-19T21:43:53.744Z,56.3
2023-05-19T21:47:21.274Z,56.3
2023-05-19T21:49:04.940Z,56.4
2023-05-19T21:50:48.657Z,56.3
2023-05-19T21:52:32.271Z,56.3
2023-05-19T21:54:15.884Z,56.3
2023-05-19T21:55:59.774Z,56.4
2023-05-19T21:57:43.579Z,56.4
2023-05-19T21:59:27.207Z,56.5
2023-05-19T22:01:10.880Z,56.4
2023-05-19T22:02:54.578Z,56.5
2023-05-19T22:04:38.243Z,56.4
2023-05-19T22:06:21.913Z,56.5
2023-05-19T22:08:05.715Z,56.4
2023-05-19T22:09:49.378Z,56.4
2023-05-19T22:11:33.108Z,56.5
2023-05-19T22:13:16.642Z,56.5
2023-05-19T22:15:00.322Z,56.5
2023-05-19T22:16:44.195Z,56.5
2023-05-19T22:18:27.924Z,56.4
2023-05-19T22:20:11.534Z,56.5
2023-05-19T22:21:55.273Z,56.5
2023-05-19T22:23:38.827Z,56.7
2023-05-19T22:25:22.539Z,56.7
2023-05-19T22:27:06.369Z,56.5
2023-05-19T22:28:50.020Z,56.4
2023-05-19T22:30:33.646Z,56.4
2023-05-19T22:32:17.321Z,56.4
2023-05-19T22:34:01.031Z,56.3
2023-05-19T22:35:44.860Z,56.3
2023-05-19T22:37:28.626Z,56.3
2023-05-19T22:39:12.138Z,56.3
2023-05-19T22:40:55.936Z,56.3
2023-05-19T22:42:39.658Z,56.3
2023-05-19T22:44:23.378Z,56.3
2023-05-19T22:47:50.739Z,56.3
2023-05-19T22:49:34.537Z,56.3
2023-05-19T22:51:18.074Z,56.3
2023-05-19T22:53:01.858Z,56.3
2023-05-19T22:56:29.253Z,56.3
2023-05-19T22:58:12.976Z,56.2
2023-05-19T22:59:56.650Z,56.2
2023-05-19T23:01:40.255Z,56.3
2023-05-19T23:03:24.136Z,56.3
2023-05-19T23:05:07.753Z,56.2
2023-05-19T23:06:51.486Z,56.2
2023-05-19T23:08:35.177Z,56.2
2023-05-19T23:10:18.938Z,56.3
2023-05-19T23:12:02.558Z,56.2
2023-05-19T23:13:46.318Z,56.2
2023-05-19T23:15:29.868Z,56.2
2023-05-19T23:17:13.743Z,56.2
2023-05-19T23:18:57.409Z,56.2
2023-05-19T23:20:41.123Z,56.2
2023-05-19T23:22:24.682Z,56.2
2023-05-19T23:24:08.534Z,56.2
2023-05-19T23:25:52.230Z,56.2
2023-05-19T23:27:35.967Z,56.2
2023-05-19T23:29:19.508Z,56.2
2023-05-19T23:31:03.433Z,56.2
2023-05-19T23:32:47.054Z,56.2
2023-05-19T23:34:30.658Z,56.1
2023-05-19T23:36:14.289Z,56.2
2023-05-19T23:37:58.156Z,56.2